Ana Sayfa
METAR-TAF:

METAR-TAF

Havaalanları :

Berbérati, Orta Afrika Cumhuriyeti

Enlem: 04-15N, Boylam: 015-48E, yükseklik: 582 m

Güncel hava durumu gözlemi

Rapor saat 10:00 UTC de 10 saat ve 19 dakika önce yapıldı.
Rüzgar güneydan 8 kt
Sıcaklık 32°C
Nem 56%
Basınç 1014 hPa
Görüş mesafesi 10 km veya daha fazla
2000 ft yükseklikte az bulutlu

METAR: FEFT 311000Z 18008KT 9999 FEW020 32/22 Q1014

Saat: 21:19 (20:19 UTC)


TAF: eksik

4.000'den fazla havaalanı için hava durumu gözlemleri ve tahminleri (METAR ve TAF raporları).

Kullanılabilir istasyonlar harita üzerinde sarı ve kırmızı noktalarla gösterilir.

İstasyonun adını görmek için fareyi noktanın üzerinde gezdirin.

Sonrasında hava gözlem ve tahminlerini görmek için tıklayın.

Haritayı değiştirmek için: yaklaştırmak için siyah artı işaretli yeşil düğmeye ve uzaklaştırmak için de eksi işaretli düğmeye hızla tıklayın; bitişik haritalar için yeşil okları kullanın.


METAR-TAF: